Time;durP1;ratioP1;P1;durP2;ratioP2;P2;SDS_P1;SDS_P2;PMS_P1;PMS_P2;Temp;Humidity;BMP_temperature;BMP_pressure;BME280_temperature;BME280_humidity;BME280_pressure;Samples;Min_cycle;Max_cycle;Signal;HPM_P1;HPM_P2
2022/03/16 00:01:13;;;;;;;19.10;13.93;;;;;;;1.82;81.43;101770.06;5031678;28;20029;-77
2022/03/16 00:03:39;;;;;;;21.67;15.33;;;;;;;1.90;81.50;101761.47;5031335;28;20028;-78
2022/03/16 00:06:04;;;;;;;30.30;19.93;;;;;;;1.70;81.63;101779.97;5038090;28;20032;-78
2022/03/16 00:08:31;;;;;;;38.87;28.27;;;;;;;1.63;82.89;101802.19;5051256;28;20032;-78
2022/03/16 00:10:58;;;;;;;36.63;24.13;;;;;;;1.78;82.94;101801.06;5049441;28;20565;-79
2022/03/16 00:13:23;;;;;;;34.60;22.37;;;;;;;1.95;81.69;101782.28;5050041;28;20028;-77
2022/03/16 00:15:49;;;;;;;34.50;20.87;;;;;;;1.96;81.09;101771.34;5051209;28;20115;-77
2022/03/16 00:18:14;;;;;;;30.60;19.20;;;;;;;2.15;81.17;101776.47;5051352;28;20081;-78
2022/03/16 00:20:40;;;;;;;29.90;17.57;;;;;;;2.07;80.84;101747.75;5050719;28;20404;-78
2022/03/16 00:23:05;;;;;;;26.53;17.20;;;;;;;1.92;80.31;101762.50;5051423;28;20040;-77
2022/03/16 00:25:31;;;;;;;21.77;13.67;;;;;;;1.48;79.48;101721.06;5049782;28;20041;-78
2022/03/16 00:27:56;;;;;;;20.97;13.73;;;;;;;1.30;80.46;101760.97;5050914;28;20021;-82
2022/03/16 00:30:22;;;;;;;23.67;14.50;;;;;;;1.23;80.58;101763.66;5036264;28;20041;-78
2022/03/16 00:32:47;;;;;;;20.63;13.07;;;;;;;1.01;81.93;101756.53;5030881;28;20064;-78
2022/03/16 00:35:13;;;;;;;22.83;14.33;;;;;;;1.11;81.70;101743.94;5030111;28;20045;-79
2022/03/16 00:37:38;;;;;;;25.37;14.27;;;;;;;1.06;81.81;101755.34;5050442;28;20107;-78
2022/03/16 00:40:04;;;;;;;24.47;14.33;;;;;;;0.75;83.00;101749.84;5048551;28;20039;-79
2022/03/16 00:42:30;;;;;;;26.37;15.47;;;;;;;0.88;82.66;101764.63;5048183;28;20074;-81
2022/03/16 00:44:56;;;;;;;28.90;17.50;;;;;;;0.59;83.34;101741.47;5050384;28;20032;-82
2022/03/16 00:47:21;;;;;;;23.57;15.60;;;;;;;0.66;83.32;101741.31;5049469;28;20487;-78
2022/03/16 00:49:47;;;;;;;22.20;15.70;;;;;;;0.77;82.68;101730.56;5050904;28;20032;-80
2022/03/16 00:52:12;;;;;;;25.53;15.60;;;;;;;0.84;82.26;101757.44;5050861;28;20103;-79
2022/03/16 00:54:38;;;;;;;25.27;15.87;;;;;;;0.52;82.84;101737.41;5049190;28;20033;-81
2022/03/16 00:57:03;;;;;;;24.53;15.57;;;;;;;0.53;83.64;101733.25;5049509;28;20051;-79
2022/03/16 00:59:29;;;;;;;25.83;15.83;;;;;;;0.14;84.76;101701.56;5049388;28;20025;-79
2022/03/16 01:01:54;;;;;;;22.43;14.70;;;;;;;0.39;85.47;101757.31;5049265;28;20484;-79
2022/03/16 01:04:20;;;;;;;21.27;14.47;;;;;;;0.58;85.61;101745.63;5050563;28;20040;-78
2022/03/16 01:06:45;;;;;;;23.37;14.30;;;;;;;0.72;84.45;101719.00;5050301;28;20052;-80
2022/03/16 01:09:11;;;;;;;22.57;12.93;;;;;;;0.77;83.06;101728.00;5049574;28;20514;-77
2022/03/16 01:11:37;;;;;;;21.10;14.47;;;;;;;0.54;83.39;101681.69;5050472;28;20364;-77
2022/03/16 01:14:02;;;;;;;21.13;14.83;;;;;;;0.47;84.22;101698.88;5050481;28;20642;-78
2022/03/16 01:16:28;;;;;;;27.40;14.33;;;;;;;0.64;84.40;101712.31;5050537;28;20029;-77
2022/03/16 01:18:54;;;;;;;23.10;15.10;;;;;;;0.66;84.06;101723.53;5050727;28;20097;-77
2022/03/16 01:21:19;;;;;;;24.63;14.50;;;;;;;0.52;84.85;101706.03;5050254;28;20415;-77
2022/03/16 01:23:45;;;;;;;19.53;13.57;;;;;;;0.27;85.28;101658.81;5050499;28;20060;-77
2022/03/16 01:26:10;;;;;;;20.67;13.77;;;;;;;0.57;85.42;101717.53;5050186;28;20498;-78
2022/03/16 01:28:36;;;;;;;21.33;13.20;;;;;;;0.64;84.55;101707.22;5050449;28;20459;-76
2022/03/16 01:31:01;;;;;;;20.53;14.03;;;;;;;0.88;83.71;101720.50;5050179;28;20028;-78
2022/03/16 01:33:28;;;;;;;22.70;14.57;;;;;;;0.89;83.43;101707.06;5054436;28;20094;-78
2022/03/16 01:35:54;;;;;;;24.67;16.57;;;;;;;0.95;83.60;101705.97;5054599;28;20139;-77
2022/03/16 01:38:19;;;;;;;20.97;14.17;;;;;;;0.85;83.37;101659.19;5054206;28;20142;-78
2022/03/16 01:40:45;;;;;;;21.07;14.00;;;;;;;1.19;83.89;101711.59;5052945;28;20029;-78
2022/03/16 01:43:11;;;;;;;21.63;14.13;;;;;;;1.18;82.66;101684.38;5053983;28;20036;-78
2022/03/16 01:45:36;;;;;;;20.60;14.00;;;;;;;1.23;81.89;101692.44;5054087;28;20032;-78
2022/03/16 01:48:02;;;;;;;26.37;15.00;;;;;;;1.26;81.92;101690.19;5052717;28;20120;-78
2022/03/16 01:50:27;;;;;;;21.50;14.43;;;;;;;1.41;82.66;101695.84;5052297;28;20411;-78
2022/03/16 01:52:53;;;;;;;22.40;14.83;;;;;;;1.37;82.60;101653.94;5053929;28;20025;-78
2022/03/16 01:55:19;;;;;;;26.13;15.27;;;;;;;1.39;81.75;101639.69;5053979;28;20029;-78
2022/03/16 01:57:47;;;;;;;20.80;15.47;;;;;;;1.60;81.73;101657.69;5052554;28;20075;-78
2022/03/16 02:00:14;;;;;;;23.90;15.70;;;;;;;1.58;81.55;101661.75;5053946;28;20021;-77
2022/03/16 02:02:39;;;;;;;25.30;16.17;;;;;;;1.60;81.04;101663.66;5053804;28;20036;-78
2022/03/16 02:05:05;;;;;;;22.43;15.23;;;;;;;1.62;81.01;101658.75;5052560;28;20024;-79
2022/03/16 02:07:31;;;;;;;24.27;15.67;;;;;;;1.75;80.97;101665.84;5051902;28;20115;-78
2022/03/16 02:10:00;;;;;;;26.80;16.50;;;;;;;1.71;81.23;101663.78;5052058;28;20073;-77
2022/03/16 02:12:25;;;;;;;25.27;16.73;;;;;;;1.73;81.63;101681.00;5053833;28;20099;-77
2022/03/16 02:14:51;;;;;;;25.73;17.77;;;;;;;1.72;81.79;101674.09;5053559;28;20182;-77
2022/03/16 02:17:16;;;;;;;25.50;17.43;;;;;;;1.65;81.76;101651.38;5050757;28;20098;-77
2022/03/16 02:19:42;;;;;;;24.47;16.20;;;;;;;1.38;82.07;101616.66;5032267;28;20100;-77
2022/03/16 02:22:13;;;;;;;26.40;17.60;;;;;;;1.48;82.88;101674.38;5033590;28;20064;-77
2022/03/16 02:24:39;;;;;;;24.20;16.57;;;;;;;1.52;83.31;101658.63;5033517;28;20036;-77
2022/03/16 02:27:04;;;;;;;24.60;17.20;;;;;;;1.56;82.90;101648.00;5032048;28;20025;-78
2022/03/16 02:29:30;;;;;;;24.80;17.53;;;;;;;1.59;83.71;101644.06;5032130;28;20029;-77
2022/03/16 02:31:55;;;;;;;22.57;16.43;;;;;;;1.64;82.79;101646.16;5065235;28;20403;-78
2022/03/16 02:34:21;;;;;;;23.57;16.10;;;;;;;1.68;82.15;101645.66;5033310;28;20874;-78
2022/03/16 02:36:47;;;;;;;21.60;16.50;;;;;;;1.60;81.98;101632.25;5031692;28;20108;-78
2022/03/16 02:39:12;;;;;;;25.30;15.93;;;;;;;1.43;81.86;101608.69;5033207;28;20033;-77
2022/03/16 02:41:37;;;;;;;23.93;16.03;;;;;;;1.51;82.32;101629.75;5031971;28;20472;-77
2022/03/16 02:44:03;;;;;;;23.80;17.50;;;;;;;1.33;83.72;101643.31;5032746;28;20056;-78
2022/03/16 02:46:29;;;;;;;28.23;19.63;;;;;;;1.38;84.65;101637.88;5031767;28;20486;-78
2022/03/16 02:48:54;;;;;;;24.77;18.63;;;;;;;1.07;84.37;101568.03;5033210;28;20087;-77
2022/03/16 02:51:19;;;;;;;28.43;18.73;;;;;;;1.27;84.87;101595.28;5032907;28;20033;-77
2022/03/16 02:53:46;;;;;;;26.23;19.20;;;;;;;1.44;84.93;101623.19;5032995;28;20029;-77
2022/03/16 02:56:11;;;;;;;28.03;19.90;;;;;;;1.10;86.08;101603.94;5050160;28;20127;-77
2022/03/16 02:58:37;;;;;;;30.87;21.13;;;;;;;0.70;89.45;101602.69;5033529;28;20140;-77
2022/03/16 03:01:03;;;;;;;29.67;21.87;;;;;;;0.25;90.48;101540.03;5050065;28;20045;-77
2022/03/16 03:03:28;;;;;;;32.07;22.33;;;;;;;0.49;90.06;101574.53;5050289;28;20657;-77
2022/03/16 03:05:55;;;;;;;30.63;22.43;;;;;;;0.89;90.43;101612.97;5049697;28;20128;-77
2022/03/16 03:08:21;;;;;;;32.37;22.67;;;;;;;0.56;90.53;101561.66;5050052;28;20120;-77
2022/03/16 03:10:48;;;;;;;27.60;19.80;;;;;;;0.61;91.39;101595.09;5032791;28;20127;-77
2022/03/16 03:13:14;;;;;;;35.87;25.13;;;;;;;0.45;93.21;101597.84;5033240;28;20128;-78
2022/03/16 03:15:41;;;;;;;30.23;22.53;;;;;;;0.49;93.21;101587.22;5037247;28;20128;-74
2022/03/16 03:18:07;;;;;;;29.83;21.73;;;;;;;0.65;92.65;101576.88;5090244;28;20039;-74
2022/03/16 03:20:32;;;;;;;33.33;22.70;;;;;;;0.82;92.30;101592.81;5090150;28;20032;-73
2022/03/16 03:22:58;;;;;;;31.17;21.53;;;;;;;0.72;92.32;101588.50;5090073;28;20106;-73
2022/03/16 03:25:23;;;;;;;32.87;21.53;;;;;;;0.74;92.36;101584.47;5073009;28;20072;-73
2022/03/16 03:27:48;;;;;;;30.43;21.30;;;;;;;0.74;92.29;101612.44;5061327;28;20127;-74
2022/03/16 03:30:14;;;;;;;32.07;22.17;;;;;;;0.82;92.34;101587.72;5052422;28;20138;-74
2022/03/16 03:32:39;;;;;;;34.80;22.00;;;;;;;0.68;91.24;101545.78;5052423;28;20029;-74
2022/03/16 03:35:06;;;;;;;29.63;20.47;;;;;;;1.12;90.06;101585.50;5052814;28;20033;-74
2022/03/16 03:37:32;;;;;;;30.93;20.03;;;;;;;1.23;89.30;101572.88;5052206;28;20037;-75
2022/03/16 03:39:58;;;;;;;30.70;20.50;;;;;;;1.32;88.53;101590.63;5052089;28;20035;-75
2022/03/16 03:42:24;;;;;;;33.07;20.30;;;;;;;1.39;87.93;101611.69;5052316;28;20454;-76
2022/03/16 03:44:51;;;;;;;29.47;19.97;;;;;;;1.44;87.86;101607.91;5052157;28;20493;-76
2022/03/16 03:47:16;;;;;;;27.30;19.40;;;;;;;1.12;88.08;101585.50;5050623;28;20116;-76
2022/03/16 03:49:42;;;;;;;31.97;21.00;;;;;;;1.12;89.36;101604.94;5052067;28;20112;-75
2022/03/16 03:52:09;;;;;;;29.07;20.80;;;;;;;1.24;88.63;101592.47;5051826;28;20071;-75
2022/03/16 03:54:34;;;;;;;30.53;20.37;;;;;;;1.18;88.32;101576.66;5049951;28;20040;-75
2022/03/16 03:57:00;;;;;;;29.47;20.90;;;;;;;1.23;88.57;101594.13;5052084;28;20033;-75
2022/03/16 03:59:26;;;;;;;31.17;21.93;;;;;;;1.24;88.61;101584.84;5051996;28;20033;-75
2022/03/16 04:01:51;;;;;;;29.67;20.77;;;;;;;1.27;88.56;101591.13;5051830;28;20029;-75
2022/03/16 04:04:17;;;;;;;34.00;20.70;;;;;;;1.17;89.22;101585.91;5051692;28;20116;-75
2022/03/16 04:06:42;;;;;;;31.03;21.47;;;;;;;1.12;89.67;101598.22;5049088;28;20427;-75
2022/03/16 04:09:08;;;;;;;28.40;20.67;;;;;;;1.18;90.16;101581.75;5051701;28;20033;-76
2022/03/16 04:11:34;;;;;;;31.67;21.07;;;;;;;1.26;90.13;101580.81;5051542;28;20060;-76
2022/03/16 04:13:59;;;;;;;31.30;21.40;;;;;;;1.34;89.15;101587.47;5051718;28;20028;-76
2022/03/16 04:16:25;;;;;;;28.30;19.90;;;;;;;1.33;88.66;101570.41;5051306;28;20032;-76
2022/03/16 04:18:51;;;;;;;32.67;19.13;;;;;;;1.31;89.15;101561.78;5049865;28;20475;-77
2022/03/16 04:21:16;;;;;;;27.93;18.97;;;;;;;1.45;88.65;101552.84;5051223;28;20491;-77
2022/03/16 04:23:42;;;;;;;28.67;18.50;;;;;;;1.48;87.60;101539.50;5051283;28;20037;-77
2022/03/16 04:26:07;;;;;;;31.63;19.87;;;;;;;1.54;87.38;101561.31;5051554;28;20056;-77
2022/03/16 04:28:33;;;;;;;28.43;19.90;;;;;;;1.57;87.12;101563.22;5051412;28;20029;-77
2022/03/16 04:31:00;;;;;;;30.57;19.27;;;;;;;1.63;86.72;101557.81;5051399;28;20037;-77
2022/03/16 04:33:26;;;;;;;34.13;18.67;;;;;;;1.70;87.02;101565.25;5051208;28;20037;-76
2022/03/16 04:35:51;;;;;;;27.27;19.33;;;;;;;1.40;86.43;101509.16;5051305;28;20044;-75
2022/03/16 04:38:17;;;;;;;29.63;20.27;;;;;;;1.73;86.58;101557.88;5051083;28;20464;-76
2022/03/16 04:40:43;;;;;;;32.87;21.00;;;;;;;1.76;86.24;101569.22;5051309;28;20055;-76
2022/03/16 04:43:09;;;;;;;30.90;21.80;;;;;;;1.72;86.69;101561.19;5051105;28;20162;-76
2022/03/16 04:45:37;;;;;;;32.40;21.77;;;;;;;1.67;86.86;101548.06;5051246;28;20539;-76
2022/03/16 04:48:03;;;;;;;30.23;20.50;;;;;;;1.16;87.93;101505.31;5049634;28;20434;-77
2022/03/16 04:50:28;;;;;;;31.47;21.60;;;;;;;1.29;88.48;101525.09;5051155;28;20036;-75
2022/03/16 04:52:54;;;;;;;31.13;22.27;;;;;;;1.58;88.34;101557.38;5050882;28;20029;-76
2022/03/16 04:55:19;;;;;;;37.23;22.40;;;;;;;1.64;87.97;101552.84;5051067;28;20033;-77
2022/03/16 04:57:45;;;;;;;32.27;24.03;;;;;;;1.67;87.91;101550.59;5050754;28;20061;-77
2022/03/16 05:00:13;;;;;;;34.90;24.23;;;;;;;1.64;87.81;101540.13;5051014;28;20037;-75
2022/03/16 05:02:38;;;;;;;35.80;24.60;;;;;;;1.58;87.77;101526.84;5051357;28;20033;-76
2022/03/16 05:05:04;;;;;;;40.93;27.57;;;;;;;1.56;88.27;101547.06;5049705;28;20650;-76
2022/03/16 05:07:30;;;;;;;40.23;27.60;;;;;;;1.52;89.02;101544.09;5050478;28;20116;-76
2022/03/16 05:09:55;;;;;;;43.37;28.37;;;;;;;1.63;88.37;101553.59;5050380;28;20140;-76
2022/03/16 05:12:21;;;;;;;39.27;26.23;;;;;;;1.36;88.40;101494.38;5050970;28;20090;-76
2022/03/16 05:14:46;;;;;;;43.63;27.57;;;;;;;1.43;89.59;101528.91;5050629;28;20095;-76
2022/03/16 05:17:11;;;;;;;45.40;28.53;;;;;;;1.33;90.75;101539.00;5050114;28;20041;-75
2022/03/16 05:19:37;;;;;;;43.33;27.07;;;;;;;1.35;90.50;101547.69;5050455;28;20039;-76
2022/03/16 05:22:02;;;;;;;43.90;27.57;;;;;;;1.42;90.72;101537.28;5048922;28;20033;-75
2022/03/16 05:24:28;;;;;;;42.73;27.77;;;;;;;1.40;90.77;101532.06;5049069;28;20033;-74
2022/03/16 05:26:53;;;;;;;40.87;28.30;;;;;;;1.51;90.14;101532.13;5050542;28;20029;-75
2022/03/16 05:29:19;;;;;;;40.50;26.83;;;;;;;1.64;90.01;101552.84;5050637;28;20036;-74
2022/03/16 05:31:45;;;;;;;40.40;27.20;;;;;;;1.52;90.05;101523.75;5050638;28;20064;-74
2022/03/16 05:34:10;;;;;;;39.43;27.03;;;;;;;1.50;90.01;101538.88;5049095;28;20071;-75
2022/03/16 05:36:36;;;;;;;37.13;26.40;;;;;;;1.41;90.67;101541.50;5049135;28;20033;-74
2022/03/16 05:39:04;;;;;;;35.97;25.40;;;;;;;1.25;91.27;101535.78;5049175;28;20041;-74
2022/03/16 05:41:29;;;;;;;37.87;26.13;;;;;;;1.12;92.65;101521.94;5050502;28;20033;-74
2022/03/16 05:43:55;;;;;;;39.57;25.90;;;;;;;1.21;92.84;101546.41;5048226;28;20032;-74
2022/03/16 05:46:21;;;;;;;38.87;25.00;;;;;;;1.21;92.30;101529.50;5043515;28;20476;-74
2022/03/16 05:48:47;;;;;;;39.83;25.70;;;;;;;1.36;92.39;101541.81;5049475;28;20036;-75
2022/03/16 05:51:12;;;;;;;36.67;25.73;;;;;;;1.44;92.31;101539.22;5049965;28;20025;-74
2022/03/16 05:53:38;;;;;;;40.80;26.00;;;;;;;1.34;92.10;101523.00;5050144;28;20033;-75
2022/03/16 05:56:04;;;;;;;39.17;24.80;;;;;;;1.32;92.07;101529.59;5048293;28;20407;-73
2022/03/16 05:58:30;;;;;;;36.93;24.97;;;;;;;1.02;93.17;101521.81;5050356;28;20100;-74
2022/03/16 06:00:55;;;;;;;59.83;39.70;;;;;;;1.04;94.05;101525.41;5050349;28;20033;-74
2022/03/16 06:03:21;;;;;;;34.10;24.90;;;;;;;1.17;94.05;101545.22;5048668;28;20035;-74
2022/03/16 06:05:46;;;;;;;40.57;25.53;;;;;;;1.06;94.71;101546.78;5050458;28;20033;-74
2022/03/16 06:08:12;;;;;;;41.30;26.07;;;;;;;1.10;94.92;101537.81;5050361;28;20036;-74
2022/03/16 06:10:38;;;;;;;37.87;25.47;;;;;;;1.10;95.24;101531.06;5049900;28;20114;-74
2022/03/16 06:13:04;;;;;;;38.13;24.83;;;;;;;0.91;95.62;101530.09;5029094;28;20040;-74
2022/03/16 06:15:50;;;;;;;36.40;25.63;;;;;;;0.87;96.70;101525.50;5047099;28;20045;-76
2022/03/16 06:18:15;;;;;;;40.27;26.23;;;;;;;1.00;97.37;101524.97;5048370;28;20509;-75
2022/03/16 06:20:41;;;;;;;50.33;31.07;;;;;;;1.03;97.51;101517.63;5050945;28;20041;-75
2022/03/16 06:23:06;;;;;;;73.67;44.37;;;;;;;1.19;96.65;101532.66;5050930;28;20032;-75
2022/03/16 06:25:33;;;;;;;57.30;37.37;;;;;;;1.17;96.75;101509.59;5050478;28;20037;-75
2022/03/16 06:27:59;;;;;;;38.23;24.33;;;;;;;0.80;98.29;101503.69;5050584;28;20037;-74
2022/03/16 06:30:25;;;;;;;37.70;26.90;;;;;;;0.87;99.35;101506.03;5050421;28;20079;-75
2022/03/16 06:32:51;;;;;;;72.33;49.50;;;;;;;1.19;98.40;101528.47;5049956;28;20085;-75
2022/03/16 06:35:17;;;;;;;46.20;33.80;;;;;;;1.26;97.78;101523.19;5050579;28;20540;-75
2022/03/16 06:37:43;;;;;;;40.90;30.53;;;;;;;0.87;96.83;101433.97;5050385;28;20033;-75
2022/03/16 06:40:10;;;;;;;40.37;28.50;;;;;;;1.36;96.20;101499.47;5050388;28;20162;-75
2022/03/16 06:42:45;;;;;;;37.83;25.57;;;;;;;1.56;94.91;101519.09;5045875;28;20489;-75
2022/03/16 06:45:10;;;;;;;36.03;25.13;;;;;;;1.45;94.78;101507.03;5048071;28;20025;-75
2022/03/16 06:47:38;;;;;;;39.00;26.93;;;;;;;1.71;94.36;101549.22;5052417;28;20593;-75
2022/03/16 06:50:05;;;;;;;35.80;25.87;;;;;;;1.85;93.84;101555.56;5051606;28;20390;-73
2022/03/16 06:52:31;;;;;;;36.17;25.10;;;;;;;1.92;92.44;101563.00;5050320;28;20031;-74
2022/03/16 06:54:56;;;;;;;37.50;25.43;;;;;;;1.99;92.67;101560.19;5052382;28;20458;-73
2022/03/16 06:57:22;;;;;;;42.33;26.30;;;;;;;1.67;92.40;101488.59;5051853;28;20471;-73
2022/03/16 06:59:47;;;;;;;41.37;26.57;;;;;;;1.84;92.94;101510.47;5051331;28;20039;-74
2022/03/16 07:02:13;;;;;;;37.40;25.27;;;;;;;1.81;92.42;101505.09;5052584;28;20025;-74
2022/03/16 07:04:38;;;;;;;37.93;25.53;;;;;;;1.89;92.30;101511.78;5052261;28;20041;-74
2022/03/16 07:07:04;;;;;;;36.80;21.63;;;;;;;1.97;92.45;101515.00;5064361;28;20055;-74
2022/03/16 07:09:32;;;;;;;44.87;22.63;;;;;;;1.98;91.95;101504.03;5049640;28;20483;-74
2022/03/16 07:11:58;;;;;;;47.80;29.93;;;;;;;1.98;92.19;101507.50;5052294;28;20040;-75
2022/03/16 07:14:32;;;;;;;42.03;24.47;;;;;;;1.95;91.26;101499.56;5052311;28;20111;-74
2022/03/16 07:17:02;;;;;;;47.47;24.53;;;;;;;1.73;91.41;101468.78;5052346;28;20025;-75
2022/03/16 07:19:28;;;;;;;52.92;27.40;;;;;;;1.83;91.70;101481.56;5051034;28;20028;-74
2022/03/16 07:21:56;;;;;;;56.67;25.73;;;;;;;1.87;92.99;101485.25;5052649;28;20475;-74
2022/03/16 07:24:22;;;;;;;63.93;27.63;;;;;;;1.74;93.68;101485.84;5049456;28;20029;-75
2022/03/16 07:26:47;;;;;;;56.53;25.90;;;;;;;1.63;92.89;101478.91;5052538;28;20033;-75
2022/03/16 07:29:13;;;;;;;41.20;22.77;;;;;;;1.58;93.66;101481.03;5051728;28;20102;-74
2022/03/16 07:31:38;;;;;;;45.77;24.33;;;;;;;1.55;92.49;101494.38;5052150;28;20037;-75
2022/03/16 07:34:04;;;;;;;45.07;22.80;;;;;;;1.41;93.80;101495.69;5052330;28;20041;-74
2022/03/16 07:36:31;;;;;;;43.13;24.13;;;;;;;1.43;93.13;101476.38;5052310;28;20060;-75
2022/03/16 07:38:57;;;;;;;57.47;26.23;;;;;;;1.59;92.94;101470.97;5050190;28;20035;-75
2022/03/16 07:41:22;;;;;;;46.33;24.43;;;;;;;1.73;91.80;101462.06;5052085;28;20100;-75
2022/03/16 07:43:48;;;;;;;63.63;32.17;;;;;;;1.84;90.26;101449.38;5051826;28;20021;-74
2022/03/16 07:46:13;;;;;;;33.93;20.37;;;;;;;1.98;91.40;101476.94;5051934;28;20024;-75
2022/03/16 07:48:43;;;;;;;36.73;20.83;;;;;;;2.03;89.68;101449.31;5051663;28;20086;-74
2022/03/16 07:51:09;;;;;;;;;;;;;;;2.16;89.42;101458.94;5052305;28;20506;-75
2022/03/16 07:53:34;;;;;;;37.27;20.07;;;;;;;2.22;89.41;101457.78;5051722;28;19952;-74
2022/03/16 07:56:00;;;;;;;28.97;19.77;;;;;;;2.27;89.38;101442.91;5051380;28;20025;-75
2022/03/16 07:58:25;;;;;;;43.17;20.53;;;;;;;2.06;88.52;101411.38;5051568;28;20460;-75
2022/03/16 08:00:51;;;;;;;36.77;19.67;;;;;;;2.26;89.21;101446.22;5051658;28;20028;-76
2022/03/16 08:03:17;;;;;;;33.90;19.57;;;;;;;2.32;88.42;101456.94;5051725;28;20024;-76
2022/03/16 08:05:43;;;;;;;33.47;20.40;;;;;;;2.35;89.63;101452.09;5051556;28;20028;-75
2022/03/16 08:08:08;;;;;;;34.90;21.77;;;;;;;2.43;88.03;101460.41;5032385;28;20122;-75
2022/03/16 08:10:34;;;;;;;35.70;22.43;;;;;;;2.43;90.52;101460.41;5051236;28;20088;-75
2022/03/16 08:13:00;;;;;;;29.73;20.13;;;;;;;2.43;88.39;101448.53;5056253;28;20088;-75
2022/03/16 08:15:25;;;;;;;35.20;21.43;;;;;;;2.52;89.18;101447.56;5050962;28;20032;-75
2022/03/16 08:17:51;;;;;;;41.33;24.60;;;;;;;2.59;87.74;101452.38;5051345;28;20017;-75
2022/03/16 08:20:16;;;;;;;43.77;24.30;;;;;;;2.50;87.48;101451.63;5032665;28;20021;-74
2022/03/16 08:22:42;;;;;;;39.67;23.20;;;;;;;2.49;89.15;101430.31;5051370;28;20112;-75
2022/03/16 08:25:10;;;;;;;45.27;25.57;;;;;;;2.44;87.95;101408.66;5051003;28;20032;-76
2022/03/16 08:27:38;;;;;;;38.40;25.27;;;;;;;2.50;87.59;101416.81;5026018;28;20673;-75
2022/03/16 08:30:08;;;;;;;36.57;24.13;;;;;;;2.57;85.76;101426.78;5027574;28;20043;-75
2022/03/16 08:32:33;;;;;;;39.93;22.97;;;;;;;2.84;86.88;101454.47;5024162;28;20511;-75
2022/03/16 08:34:59;;;;;;;38.73;23.20;;;;;;;2.90;86.28;101442.22;5023613;28;20064;-76
2022/03/16 08:37:24;;;;;;;37.27;23.60;;;;;;;2.91;85.34;101446.56;5028017;28;20037;-74
2022/03/16 08:39:50;;;;;;;39.70;22.87;;;;;;;2.95;87.56;101428.19;5028204;28;20035;-74
2022/03/16 08:42:17;;;;;;;33.00;22.37;;;;;;;3.03;85.94;101428.84;5026231;28;20146;-76
2022/03/16 08:44:45;;;;;;;37.30;22.30;;;;;;;3.08;85.71;101425.91;5028916;28;20043;-77
2022/03/16 08:47:11;;;;;;;38.23;21.90;;;;;;;2.99;86.66;101432.81;5027047;28;20049;-81
2022/03/16 08:49:37;;;;;;;30.40;21.83;;;;;;;2.99;86.93;101432.81;5026701;28;20029;-84
2022/03/16 08:52:05;;;;;;;32.83;22.13;;;;;;;2.82;86.48;101369.31;5027129;28;20052;-81
2022/03/16 08:54:30;;;;;;;31.03;19.50;;;;;;;3.11;86.44;101409.94;5024802;28;20033;-83
2022/03/16 08:56:56;;;;;;;41.23;23.77;;;;;;;3.29;87.64;101430.06;5009763;28;20037;-82
2022/03/16 08:59:23;;;;;;;50.80;23.97;;;;;;;3.41;86.87;101418.31;5058046;28;20040;-82
2022/03/16 09:01:49;;;;;;;43.60;20.30;;;;;;;3.58;85.64;101417.13;5048791;28;20094;-81
2022/03/16 09:04:15;;;;;;;36.60;21.63;;;;;;;3.61;84.67;101419.03;5050089;28;20028;-79
2022/03/16 09:06:41;;;;;;;36.05;19.67;;;;;;;3.64;84.08;101412.53;5050874;28;20457;-80
2022/03/16 09:09:06;;;;;;;37.35;22.27;;;;;;;3.68;83.91;101409.44;5049088;28;20048;-79
2022/03/16 09:11:33;;;;;;;42.33;21.83;;;;;;;3.55;84.17;101376.94;5043558;28;20089;-78
2022/03/16 09:13:59;;;;;;;36.28;20.58;;;;;;;3.76;83.88;101412.59;5030372;28;20083;-83
2022/03/16 09:16:24;;;;;;;42.92;23.15;;;;;;;3.88;83.54;101393.13;5034640;28;20259;-81
2022/03/16 09:18:52;;;;;;;35.47;22.20;;;;;;;4.11;83.28;101413.59;5030001;28;20171;-78
2022/03/16 09:21:18;;;;;;;30.52;21.40;;;;;;;4.19;83.77;101418.53;5030490;28;20025;-81
2022/03/16 09:23:44;;;;;;;49.72;25.63;;;;;;;4.01;82.41;101405.22;5029968;28;20448;-81
2022/03/16 09:26:09;;;;;;;38.15;24.40;;;;;;;4.00;82.97;101402.53;5029355;28;20112;-80
2022/03/16 09:28:35;;;;;;;35.60;24.63;;;;;;;3.98;83.80;101394.75;5030746;28;20032;-78
2022/03/16 09:31:00;;;;;;;39.83;26.35;;;;;;;4.10;84.55;101399.94;5036530;28;20033;-80
2022/03/16 09:33:26;;;;;;;36.58;25.63;;;;;;;4.03;83.75;101367.88;5050247;28;20110;-79
2022/03/16 09:35:51;;;;;;;37.25;25.08;;;;;;;4.26;83.96;101384.13;5050636;28;20036;-79
2022/03/16 09:38:20;;;;;;;38.78;24.33;;;;;;;4.19;84.15;101375.06;5050466;28;20090;-80
2022/03/16 09:40:52;;;;;;;35.50;22.83;;;;;;;4.36;84.44;101395.94;5050639;28;20471;-80
2022/03/16 09:43:18;;;;;;;36.50;23.70;;;;;;;4.42;83.75;101380.19;5050667;28;20108;-78
2022/03/16 09:45:55;;;;;;;36.83;25.90;;;;;;;4.53;83.04;101387.88;5050637;28;20021;-77
2022/03/16 09:48:23;;;;;;;36.33;24.65;;;;;;;4.59;82.63;101386.59;5049113;28;20040;-79
2022/03/16 09:50:50;;;;;;;34.40;23.92;;;;;;;4.67;83.52;101380.38;5049098;28;20090;-79
2022/03/16 09:53:15;;;;;;;31.58;21.40;;;;;;;4.62;84.40;101372.38;5050683;28;20037;-79
2022/03/16 09:55:41;;;;;;;30.63;19.90;;;;;;;4.43;85.71;101372.63;5052807;28;20493;-79
2022/03/16 09:58:06;;;;;;;30.13;21.75;;;;;;;4.42;86.23;101359.72;5052909;28;20033;-80
2022/03/16 10:00:33;;;;;;;29.70;20.63;;;;;;;4.46;85.87;101329.41;5052918;28;20040;-79
2022/03/16 10:03:02;;;;;;;28.15;20.73;;;;;;;4.82;85.60;101355.03;5054293;28;20037;-78
2022/03/16 10:05:29;;;;;;;29.80;21.80;;;;;;;4.83;85.66;101349.16;5052879;28;20119;-79
2022/03/16 10:07:55;;;;;;;30.80;23.02;;;;;;;4.74;85.76;101344.25;5052732;28;20033;-82
2022/03/16 10:13:25;;;;;;;29.63;22.55;;;;;;;5.23;85.28;101339.28;5054162;28;20885;-79
2022/03/16 10:16:09;;;;;;;29.00;22.92;;;;;;;5.33;85.00;101335.72;5052718;28;20037;-79
2022/03/16 10:18:36;;;;;;;28.52;22.67;;;;;;;5.29;85.41;101328.59;5052700;28;20033;-78
2022/03/16 10:21:04;;;;;;;32.53;22.33;;;;;;;5.44;85.43;101327.13;5052676;28;20032;-79
2022/03/16 10:23:33;;;;;;;29.60;21.55;;;;;;;5.53;85.03;101323.44;5052578;28;20040;-80
2022/03/16 10:26:03;;;;;;;30.48;22.98;;;;;;;5.59;85.60;101321.31;5053932;28;20025;-78
2022/03/16 10:28:30;;;;;;;31.13;22.05;;;;;;;5.52;84.83;101281.59;5052379;28;20044;-79
2022/03/16 10:31:05;;;;;;;30.10;21.15;;;;;;;5.83;86.62;101309.31;5053739;28;20033;-79
2022/03/16 10:33:48;;;;;;;36.10;24.70;;;;;;;5.50;86.39;101252.41;5054168;28;20162;-79
2022/03/16 10:36:20;;;;;;;30.27;23.65;;;;;;;5.98;87.34;101305.31;5053646;28;20384;-79
2022/03/16 10:38:49;;;;;;;28.27;20.55;;;;;;;5.92;87.54;101288.56;5052389;28;20036;-79
2022/03/16 10:47:14;;;;;;;29.67;21.40;;;;;;;6.18;85.94;101282.72;5053413;28;20079;-79
2022/03/16 10:49:41;;;;;;;26.55;18.05;;;;;;;5.97;85.55;101283.00;5051973;28;20033;-80
2022/03/16 10:52:20;;;;;;;25.60;19.73;;;;;;;6.06;85.45;101282.75;5053505;28;20025;-80
2022/03/16 10:54:50;;;;;;;25.50;18.95;;;;;;;6.17;85.00;101291.19;5053272;28;20028;-79
2022/03/16 10:57:15;;;;;;;27.00;19.63;;;;;;;6.26;84.83;101284.09;5047119;28;20078;-79
2022/03/16 10:59:43;;;;;;;25.98;20.38;;;;;;;6.36;85.21;101287.31;5053334;28;20033;-79
2022/03/16 11:02:13;;;;;;;33.47;22.42;;;;;;;6.46;83.82;101269.19;5053167;28;20111;-79
2022/03/16 11:04:44;;;;;;;22.88;18.38;;;;;;;6.53;81.73;101261.09;5052439;28;20033;-79
2022/03/16 11:07:10;;;;;;;28.33;20.52;;;;;;;6.63;82.07;101267.72;5051739;28;20037;-79
2022/03/16 11:09:37;;;;;;;21.88;17.98;;;;;;;6.72;81.61;101270.00;5051265;28;20128;-80
2022/03/16 11:14:48;;;;;;;24.55;19.30;;;;;;;6.81;82.10;101255.19;5053306;28;20577;-80
2022/03/16 11:17:15;;;;;;;23.08;18.60;;;;;;;6.90;81.30;101254.91;5051578;28;20095;-79
2022/03/16 11:19:44;;;;;;;24.35;18.35;;;;;;;6.92;80.63;101243.94;5052809;28;20082;-80
2022/03/16 11:22:10;;;;;;;;;;;;;;;6.94;81.94;101254.31;5051942;28;20031;-80
2022/03/16 11:24:42;;;;;;;23.83;16.98;;;;;;;6.92;81.25;101243.06;5053257;28;19913;-80